Rebriha, Russia
Current Conditions -  °F | °C
As of 8:00 PM on Sunday 23 Nov 2014 (Local Time) from UNBB Reporting Station
Blowing Snow Blowing Snow  
Wind Chill: 12°   Ceiling: 3300
Heat Index: 27°   Visibility: 6mi
Dew Point: 19°   Wind: 22mph
Humidity: 74%   Direction: 210°SSW
Pressure: 29.68"   Gusts: 34mph
Location:  53.08°N, 82.33°E
Report Text: UNBB 231300Z 21010G15MPS 9999 DRSN BKN033 M03/M07 Q1005 NOSIGRMK QFE732/0976 24800550
Loading
Personal Weather Stations






























Interactive Weather Map New forecast layout! Learn more

10-Day Weather Forecast

Advertisements
Track Severe Weather on mobile